sensor_id;sensor_type;location;lat;lon;timestamp;temperature;humidity
26336;DHT22;14047;50.936;4.654;2023-02-27T00:00:38;0.70;99.90
26336;DHT22;14047;50.936;4.654;2023-02-27T00:03:05;0.70;99.90
26336;DHT22;14047;50.936;4.654;2023-02-27T00:05:31;0.70;99.90
26336;DHT22;14047;50.936;4.654;2023-02-27T00:07:57;0.70;99.90
26336;DHT22;14047;50.936;4.654;2023-02-27T00:10:23;0.70;99.90
26336;DHT22;14047;50.936;4.654;2023-02-27T00:12:49;0.60;99.90
26336;DHT22;14047;50.936;4.654;2023-02-27T00:15:17;0.60;99.90
26336;DHT22;14047;50.936;4.654;2023-02-27T00:17:44;0.70;99.90
26336;DHT22;14047;50.936;4.654;2023-02-27T00:20:12;0.60;99.90
26336;DHT22;14047;50.936;4.654;2023-02-27T00:22:39;0.50;99.90
26336;DHT22;14047;50.936;4.654;2023-02-27T00:25:06;0.50;99.90
26336;DHT22;14047;50.936;4.654;2023-02-27T00:27:33;0.30;99.90
26336;DHT22;14047;50.936;4.654;2023-02-27T00:30:02;0.30;99.90
26336;DHT22;14047;50.936;4.654;2023-02-27T00:32:30;0.40;99.90
26336;DHT22;14047;50.936;4.654;2023-02-27T00:34:55;0.30;99.90
26336;DHT22;14047;50.936;4.654;2023-02-27T00:37:22;0.30;99.90
26336;DHT22;14047;50.936;4.654;2023-02-27T00:39:48;0.20;99.90
26336;DHT22;14047;50.936;4.654;2023-02-27T00:42:15;0.20;99.90
26336;DHT22;14047;50.936;4.654;2023-02-27T00:44:41;0.30;99.90
26336;DHT22;14047;50.936;4.654;2023-02-27T00:47:07;0.40;99.90
26336;DHT22;14047;50.936;4.654;2023-02-27T00:49:33;0.30;99.90
26336;DHT22;14047;50.936;4.654;2023-02-27T00:51:59;0.50;99.90
26336;DHT22;14047;50.936;4.654;2023-02-27T00:54:25;0.50;99.90
26336;DHT22;14047;50.936;4.654;2023-02-27T00:56:51;0.50;99.90
26336;DHT22;14047;50.936;4.654;2023-02-27T00:59:17;0.40;99.90
26336;DHT22;14047;50.936;4.654;2023-02-27T01:01:44;0.40;99.90
26336;DHT22;14047;50.936;4.654;2023-02-27T01:04:10;0.30;99.90
26336;DHT22;14047;50.936;4.654;2023-02-27T01:06:36;0.30;99.90
26336;DHT22;14047;50.936;4.654;2023-02-27T01:09:02;0.20;99.90
26336;DHT22;14047;50.936;4.654;2023-02-27T01:11:29;0.10;99.90
26336;DHT22;14047;50.936;4.654;2023-02-27T01:13:55;0.00;99.90
26336;DHT22;14047;50.936;4.654;2023-02-27T01:16:21;0.10;99.90
26336;DHT22;14047;50.936;4.654;2023-02-27T01:18:47;0.00;99.90
26336;DHT22;14047;50.936;4.654;2023-02-27T01:21:14;0.00;99.90
26336;DHT22;14047;50.936;4.654;2023-02-27T01:23:41;0.00;99.90
26336;DHT22;14047;50.936;4.654;2023-02-27T01:26:07;0.00;99.90
26336;DHT22;14047;50.936;4.654;2023-02-27T01:28:33;0.00;99.90
26336;DHT22;14047;50.936;4.654;2023-02-27T01:30:59;0.10;99.90
26336;DHT22;14047;50.936;4.654;2023-02-27T01:33:25;0.10;99.90
26336;DHT22;14047;50.936;4.654;2023-02-27T01:35:51;0.00;99.90
26336;DHT22;14047;50.936;4.654;2023-02-27T01:38:17;0.00;99.90
26336;DHT22;14047;50.936;4.654;2023-02-27T01:40:43;0.10;99.90
26336;DHT22;14047;50.936;4.654;2023-02-27T01:43:19;0.10;99.90
26336;DHT22;14047;50.936;4.654;2023-02-27T01:45:46;0.00;99.90
26336;DHT22;14047;50.936;4.654;2023-02-27T01:48:21;0.20;99.90
26336;DHT22;14047;50.936;4.654;2023-02-27T01:53:18;0.40;99.90
26336;DHT22;14047;50.936;4.654;2023-02-27T01:55:46;0.40;99.90
26336;DHT22;14047;50.936;4.654;2023-02-27T01:58:13;0.50;99.90
26336;DHT22;14047;50.936;4.654;2023-02-27T02:00:40;0.50;99.90
26336;DHT22;14047;50.936;4.654;2023-02-27T02:03:31;0.30;99.90
26336;DHT22;14047;50.936;4.654;2023-02-27T02:06:00;0.20;99.90
26336;DHT22;14047;50.936;4.654;2023-02-27T02:08:29;0.10;99.90
26336;DHT22;14047;50.936;4.654;2023-02-27T02:10:57;-0.20;99.90
26336;DHT22;14047;50.936;4.654;2023-02-27T02:13:24;-0.20;99.90
26336;DHT22;14047;50.936;4.654;2023-02-27T02:16:07;-0.10;99.90
26336;DHT22;14047;50.936;4.654;2023-02-27T02:18:52;0.00;99.90
26336;DHT22;14047;50.936;4.654;2023-02-27T02:30:36;0.00;99.90
26336;DHT22;14047;50.936;4.654;2023-02-27T02:50:11;-0.50;99.90
26336;DHT22;14047;50.936;4.654;2023-02-27T02:55:47;-0.60;99.90
26336;DHT22;14047;50.936;4.654;2023-02-27T03:01:05;-0.50;99.90
26336;DHT22;14047;50.936;4.654;2023-02-27T03:03:39;-0.60;99.90
26336;DHT22;14047;50.936;4.654;2023-02-27T03:06:10;-0.70;99.90
26336;DHT22;14047;50.936;4.654;2023-02-27T03:08:47;-0.70;99.90
26336;DHT22;14047;50.936;4.654;2023-02-27T03:11:14;-0.80;99.90
26336;DHT22;14047;50.936;4.654;2023-02-27T03:13:55;-0.80;99.90
26336;DHT22;14047;50.936;4.654;2023-02-27T03:16:29;-0.80;99.90
26336;DHT22;14047;50.936;4.654;2023-02-27T03:21:49;-1.00;99.90
26336;DHT22;14047;50.936;4.654;2023-02-27T03:24:50;-0.90;99.90
26336;DHT22;14047;50.936;4.654;2023-02-27T03:27:19;-0.80;99.90
26336;DHT22;14047;50.936;4.654;2023-02-27T03:30:29;-0.70;99.90
26336;DHT22;14047;50.936;4.654;2023-02-27T03:33:09;-0.70;99.90
26336;DHT22;14047;50.936;4.654;2023-02-27T03:35:44;-0.60;99.90
26336;DHT22;14047;50.936;4.654;2023-02-27T03:38:25;-0.60;99.90
26336;DHT22;14047;50.936;4.654;2023-02-27T03:46:32;-0.70;99.90
26336;DHT22;14047;50.936;4.654;2023-02-27T03:48:58;-0.80;99.90
26336;DHT22;14047;50.936;4.654;2023-02-27T03:51:24;-0.80;99.90
26336;DHT22;14047;50.936;4.654;2023-02-27T03:57:09;-0.70;99.90
26336;DHT22;14047;50.936;4.654;2023-02-27T03:59:36;-0.80;99.90
26336;DHT22;14047;50.936;4.654;2023-02-27T04:02:03;-0.70;99.90
26336;DHT22;14047;50.936;4.654;2023-02-27T04:04:31;-0.80;99.90
26336;DHT22;14047;50.936;4.654;2023-02-27T04:10:24;-0.90;99.90
26336;DHT22;14047;50.936;4.654;2023-02-27T04:21:17;-0.90;99.90
26336;DHT22;14047;50.936;4.654;2023-02-27T04:26:49;-0.80;99.90
26336;DHT22;14047;50.936;4.654;2023-02-27T04:35:14;-0.80;99.90
26336;DHT22;14047;50.936;4.654;2023-02-27T04:37:55;-0.60;99.90
26336;DHT22;14047;50.936;4.654;2023-02-27T04:40:28;-0.50;99.90
26336;DHT22;14047;50.936;4.654;2023-02-27T04:43:00;-0.40;99.90
26336;DHT22;14047;50.936;4.654;2023-02-27T04:45:27;-0.30;99.90
26336;DHT22;14047;50.936;4.654;2023-02-27T04:48:02;-0.20;99.90
26336;DHT22;14047;50.936;4.654;2023-02-27T04:50:37;-0.30;99.90
26336;DHT22;14047;50.936;4.654;2023-02-27T04:53:14;-0.30;99.90
26336;DHT22;14047;50.936;4.654;2023-02-27T04:55:45;-0.30;99.90
26336;DHT22;14047;50.936;4.654;2023-02-27T04:58:49;-0.40;99.90
26336;DHT22;14047;50.936;4.654;2023-02-27T05:01:33;-0.50;99.90
26336;DHT22;14047;50.936;4.654;2023-02-27T05:04:00;-0.50;99.90
26336;DHT22;14047;50.936;4.654;2023-02-27T05:06:31;-0.40;99.90
26336;DHT22;14047;50.936;4.654;2023-02-27T05:11:56;-0.40;99.90
26336;DHT22;14047;50.936;4.654;2023-02-27T05:14:39;-0.50;99.90
26336;DHT22;14047;50.936;4.654;2023-02-27T05:17:29;-0.40;99.90
26336;DHT22;14047;50.936;4.654;2023-02-27T05:19:53;-0.40;99.90
26336;DHT22;14047;50.936;4.654;2023-02-27T05:25:03;-0.60;99.90
26336;DHT22;14047;50.936;4.654;2023-02-27T05:27:43;-0.60;99.90
26336;DHT22;14047;50.936;4.654;2023-02-27T05:30:25;-0.60;99.90
26336;DHT22;14047;50.936;4.654;2023-02-27T05:40:18;-1.30;99.90
26336;DHT22;14047;50.936;4.654;2023-02-27T05:42:49;-1.30;99.90
26336;DHT22;14047;50.936;4.654;2023-02-27T05:45:21;-1.20;99.90
26336;DHT22;14047;50.936;4.654;2023-02-27T05:48:03;-1.20;99.90
26336;DHT22;14047;50.936;4.654;2023-02-27T05:50:33;-1.10;99.90
26336;DHT22;14047;50.936;4.654;2023-02-27T05:53:03;-1.10;99.90
26336;DHT22;14047;50.936;4.654;2023-02-27T05:55:37;-1.10;99.90
26336;DHT22;14047;50.936;4.654;2023-02-27T06:00:40;-1.30;99.90
26336;DHT22;14047;50.936;4.654;2023-02-27T06:03:07;-1.40;99.90
26336;DHT22;14047;50.936;4.654;2023-02-27T06:05:36;-1.60;99.90
26336;DHT22;14047;50.936;4.654;2023-02-27T06:08:03;-1.60;99.90
26336;DHT22;14047;50.936;4.654;2023-02-27T06:10:29;-1.50;99.90
26336;DHT22;14047;50.936;4.654;2023-02-27T06:12:55;-1.50;99.90
26336;DHT22;14047;50.936;4.654;2023-02-27T06:15:21;-1.60;99.90
26336;DHT22;14047;50.936;4.654;2023-02-27T06:17:47;-1.70;99.90
26336;DHT22;14047;50.936;4.654;2023-02-27T06:20:13;-1.60;99.90
26336;DHT22;14047;50.936;4.654;2023-02-27T06:22:40;-1.60;99.90
26336;DHT22;14047;50.936;4.654;2023-02-27T06:25:06;-1.40;99.90
26336;DHT22;14047;50.936;4.654;2023-02-27T06:27:32;-1.20;99.90
26336;DHT22;14047;50.936;4.654;2023-02-27T06:29:58;-1.40;99.90
26336;DHT22;14047;50.936;4.654;2023-02-27T06:32:24;-1.70;99.90
26336;DHT22;14047;50.936;4.654;2023-02-27T06:34:51;-1.70;99.90
26336;DHT22;14047;50.936;4.654;2023-02-27T06:37:17;-1.60;99.90
26336;DHT22;14047;50.936;4.654;2023-02-27T06:39:43;-1.50;99.90
26336;DHT22;14047;50.936;4.654;2023-02-27T06:42:09;-1.70;99.90
26336;DHT22;14047;50.936;4.654;2023-02-27T06:44:35;-1.60;99.90
26336;DHT22;14047;50.936;4.654;2023-02-27T06:47:01;-1.40;99.90
26336;DHT22;14047;50.936;4.654;2023-02-27T06:49:27;-1.30;99.90
26336;DHT22;14047;50.936;4.654;2023-02-27T06:51:53;-1.20;99.90
26336;DHT22;14047;50.936;4.654;2023-02-27T06:54:19;-1.10;99.90
26336;DHT22;14047;50.936;4.654;2023-02-27T06:56:45;-1.00;99.90
26336;DHT22;14047;50.936;4.654;2023-02-27T06:59:12;-0.90;99.90
26336;DHT22;14047;50.936;4.654;2023-02-27T07:01:38;-1.10;99.90
26336;DHT22;14047;50.936;4.654;2023-02-27T07:04:04;-1.40;99.90
26336;DHT22;14047;50.936;4.654;2023-02-27T07:06:30;-1.70;99.90
26336;DHT22;14047;50.936;4.654;2023-02-27T07:08:56;-1.80;99.90
26336;DHT22;14047;50.936;4.654;2023-02-27T07:11:22;-1.80;99.90
26336;DHT22;14047;50.936;4.654;2023-02-27T07:13:48;-1.60;99.90
26336;DHT22;14047;50.936;4.654;2023-02-27T07:16:14;-1.50;99.90
26336;DHT22;14047;50.936;4.654;2023-02-27T07:18:40;-1.30;99.90
26336;DHT22;14047;50.936;4.654;2023-02-27T07:21:06;-1.00;99.90
26336;DHT22;14047;50.936;4.654;2023-02-27T07:23:32;-0.90;99.90
26336;DHT22;14047;50.936;4.654;2023-02-27T07:25:59;-0.90;99.90
26336;DHT22;14047;50.936;4.654;2023-02-27T07:28:25;-0.80;99.90
26336;DHT22;14047;50.936;4.654;2023-02-27T07:30:54;-0.80;99.90
26336;DHT22;14047;50.936;4.654;2023-02-27T07:33:20;-1.00;99.90
26336;DHT22;14047;50.936;4.654;2023-02-27T07:35:47;-1.10;99.90
26336;DHT22;14047;50.936;4.654;2023-02-27T07:38:13;-1.10;99.90
26336;DHT22;14047;50.936;4.654;2023-02-27T07:40:39;-1.10;99.90
26336;DHT22;14047;50.936;4.654;2023-02-27T07:43:05;-1.10;99.90
26336;DHT22;14047;50.936;4.654;2023-02-27T07:45:31;-1.10;99.90
26336;DHT22;14047;50.936;4.654;2023-02-27T07:47:57;-1.00;99.90
26336;DHT22;14047;50.936;4.654;2023-02-27T07:50:23;-0.90;99.90
26336;DHT22;14047;50.936;4.654;2023-02-27T07:52:50;-0.90;99.90
26336;DHT22;14047;50.936;4.654;2023-02-27T07:55:17;-0.80;99.90
26336;DHT22;14047;50.936;4.654;2023-02-27T07:57:43;-0.80;99.90
26336;DHT22;14047;50.936;4.654;2023-02-27T08:00:10;-0.50;99.90
26336;DHT22;14047;50.936;4.654;2023-02-27T08:02:39;-0.40;99.90
26336;DHT22;14047;50.936;4.654;2023-02-27T08:05:06;-0.30;99.90
26336;DHT22;14047;50.936;4.654;2023-02-27T08:07:32;-0.30;99.90
26336;DHT22;14047;50.936;4.654;2023-02-27T08:09:58;-0.30;99.90
26336;DHT22;14047;50.936;4.654;2023-02-27T08:12:24;-0.20;99.90
26336;DHT22;14047;50.936;4.654;2023-02-27T08:14:50;0.00;99.90
26336;DHT22;14047;50.936;4.654;2023-02-27T08:17:16;0.00;99.90
26336;DHT22;14047;50.936;4.654;2023-02-27T08:19:42;0.10;99.90
26336;DHT22;14047;50.936;4.654;2023-02-27T08:22:08;0.20;99.90
26336;DHT22;14047;50.936;4.654;2023-02-27T08:24:34;0.30;99.90
26336;DHT22;14047;50.936;4.654;2023-02-27T08:27:00;0.30;99.90
26336;DHT22;14047;50.936;4.654;2023-02-27T08:29:26;0.40;99.90
26336;DHT22;14047;50.936;4.654;2023-02-27T08:31:53;0.50;99.90
26336;DHT22;14047;50.936;4.654;2023-02-27T08:34:19;0.50;99.90
26336;DHT22;14047;50.936;4.654;2023-02-27T08:36:44;0.60;99.90
26336;DHT22;14047;50.936;4.654;2023-02-27T08:39:11;0.70;99.90
26336;DHT22;14047;50.936;4.654;2023-02-27T08:41:37;0.70;99.90
26336;DHT22;14047;50.936;4.654;2023-02-27T08:44:03;0.80;99.90
26336;DHT22;14047;50.936;4.654;2023-02-27T08:46:30;0.90;99.90
26336;DHT22;14047;50.936;4.654;2023-02-27T08:48:56;1.00;99.90
26336;DHT22;14047;50.936;4.654;2023-02-27T08:51:22;1.10;99.90
26336;DHT22;14047;50.936;4.654;2023-02-27T08:53:47;1.10;99.90
26336;DHT22;14047;50.936;4.654;2023-02-27T08:56:13;1.30;99.90
26336;DHT22;14047;50.936;4.654;2023-02-27T08:58:39;1.50;99.90
26336;DHT22;14047;50.936;4.654;2023-02-27T09:01:05;1.40;99.90
26336;DHT22;14047;50.936;4.654;2023-02-27T09:03:31;1.40;99.90
26336;DHT22;14047;50.936;4.654;2023-02-27T09:05:57;1.50;99.90
26336;DHT22;14047;50.936;4.654;2023-02-27T09:08:24;1.70;99.90
26336;DHT22;14047;50.936;4.654;2023-02-27T09:10:50;1.70;99.90
26336;DHT22;14047;50.936;4.654;2023-02-27T09:13:16;1.80;99.90
26336;DHT22;14047;50.936;4.654;2023-02-27T09:15:42;1.80;99.90
26336;DHT22;14047;50.936;4.654;2023-02-27T09:18:08;1.70;99.90
26336;DHT22;14047;50.936;4.654;2023-02-27T09:20:34;1.80;99.90
26336;DHT22;14047;50.936;4.654;2023-02-27T09:23:02;1.90;99.90
26336;DHT22;14047;50.936;4.654;2023-02-27T09:25:28;2.10;99.90
26336;DHT22;14047;50.936;4.654;2023-02-27T09:27:54;2.20;99.90
26336;DHT22;14047;50.936;4.654;2023-02-27T09:30:20;2.30;99.90
26336;DHT22;14047;50.936;4.654;2023-02-27T09:32:47;2.40;99.90
26336;DHT22;14047;50.936;4.654;2023-02-27T09:35:13;2.60;99.90
26336;DHT22;14047;50.936;4.654;2023-02-27T09:37:41;2.60;99.90
26336;DHT22;14047;50.936;4.654;2023-02-27T09:40:18;2.70;99.90
26336;DHT22;14047;50.936;4.654;2023-02-27T09:42:45;2.90;99.90
26336;DHT22;14047;50.936;4.654;2023-02-27T09:45:21;3.10;99.90
26336;DHT22;14047;50.936;4.654;2023-02-27T09:47:52;3.10;99.90
26336;DHT22;14047;50.936;4.654;2023-02-27T09:50:41;3.10;99.90
26336;DHT22;14047;50.936;4.654;2023-02-27T09:55:41;3.00;99.90
26336;DHT22;14047;50.936;4.654;2023-02-27T10:01:14;3.10;99.90
26336;DHT22;14047;50.936;4.654;2023-02-27T10:14:46;3.80;99.90
26336;DHT22;14047;50.936;4.654;2023-02-27T10:17:30;3.80;99.90
26336;DHT22;14047;50.936;4.654;2023-02-27T10:20:00;3.90;99.90
26336;DHT22;14047;50.936;4.654;2023-02-27T10:22:34;3.80;99.90
26336;DHT22;14047;50.936;4.654;2023-02-27T10:25:12;4.00;99.90
26336;DHT22;14047;50.936;4.654;2023-02-27T10:27:41;4.10;99.90
26336;DHT22;14047;50.936;4.654;2023-02-27T10:30:24;4.20;99.90
26336;DHT22;14047;50.936;4.654;2023-02-27T10:33:01;4.20;99.90
26336;DHT22;14047;50.936;4.654;2023-02-27T10:35:35;4.30;99.90
26336;DHT22;14047;50.936;4.654;2023-02-27T10:38:13;4.20;99.90
26336;DHT22;14047;50.936;4.654;2023-02-27T10:40:41;4.30;99.90
26336;DHT22;14047;50.936;4.654;2023-02-27T10:43:12;4.40;99.90
26336;DHT22;14047;50.936;4.654;2023-02-27T10:45:39;4.60;99.90
26336;DHT22;14047;50.936;4.654;2023-02-27T10:48:05;4.70;99.90
26336;DHT22;14047;50.936;4.654;2023-02-27T10:50:36;4.30;99.90
26336;DHT22;14047;50.936;4.654;2023-02-27T10:53:05;4.40;99.90
26336;DHT22;14047;50.936;4.654;2023-02-27T10:55:33;4.70;99.90
26336;DHT22;14047;50.936;4.654;2023-02-27T10:58:02;4.90;99.90
26336;DHT22;14047;50.936;4.654;2023-02-27T11:00:42;5.10;99.90
26336;DHT22;14047;50.936;4.654;2023-02-27T11:03:24;4.90;99.90
26336;DHT22;14047;50.936;4.654;2023-02-27T11:08:42;5.00;99.90
26336;DHT22;14047;50.936;4.654;2023-02-27T11:11:10;5.10;99.90
26336;DHT22;14047;50.936;4.654;2023-02-27T11:13:44;5.40;99.90
26336;DHT22;14047;50.936;4.654;2023-02-27T11:16:18;5.40;99.90
26336;DHT22;14047;50.936;4.654;2023-02-27T11:18:48;5.70;99.90
26336;DHT22;14047;50.936;4.654;2023-02-27T11:21:26;5.70;99.90
26336;DHT22;14047;50.936;4.654;2023-02-27T11:24:04;5.70;99.90
26336;DHT22;14047;50.936;4.654;2023-02-27T11:29:17;5.50;99.90
26336;DHT22;14047;50.936;4.654;2023-02-27T11:31:53;5.60;99.90
26336;DHT22;14047;50.936;4.654;2023-02-27T11:34:27;5.70;99.90
26336;DHT22;14047;50.936;4.654;2023-02-27T11:37:25;5.80;99.90
26336;DHT22;14047;50.936;4.654;2023-02-27T11:39:51;5.60;99.90
26336;DHT22;14047;50.936;4.654;2023-02-27T11:42:29;5.60;99.90
26336;DHT22;14047;50.936;4.654;2023-02-27T11:45:01;5.60;99.90
26336;DHT22;14047;50.936;4.654;2023-02-27T11:47:32;5.40;99.90
26336;DHT22;14047;50.936;4.654;2023-02-27T11:50:42;5.50;99.90
26336;DHT22;14047;50.936;4.654;2023-02-27T11:55:29;6.00;99.90
26336;DHT22;14047;50.936;4.654;2023-02-27T11:58:20;6.20;99.90
26336;DHT22;14047;50.936;4.654;2023-02-27T12:00:57;6.30;99.90
26336;DHT22;14047;50.936;4.654;2023-02-27T12:03:49;6.60;99.90
26336;DHT22;14047;50.936;4.654;2023-02-27T12:06:25;6.40;99.90
26336;DHT22;14047;50.936;4.654;2023-02-27T12:08:53;6.10;99.90
26336;DHT22;14047;50.936;4.654;2023-02-27T12:11:40;5.60;99.90
26336;DHT22;14047;50.936;4.654;2023-02-27T12:14:24;5.50;99.90
26336;DHT22;14047;50.936;4.654;2023-02-27T12:17:02;5.40;99.90
26336;DHT22;14047;50.936;4.654;2023-02-27T12:22:47;5.80;99.90
26336;DHT22;14047;50.936;4.654;2023-02-27T12:26:09;5.80;99.90
26336;DHT22;14047;50.936;4.654;2023-02-27T12:28:45;6.20;99.90
26336;DHT22;14047;50.936;4.654;2023-02-27T12:34:25;6.60;99.90
26336;DHT22;14047;50.936;4.654;2023-02-27T12:37:01;6.60;99.90
26336;DHT22;14047;50.936;4.654;2023-02-27T12:39:28;6.30;99.90
26336;DHT22;14047;50.936;4.654;2023-02-27T12:47:51;6.00;99.90
26336;DHT22;14047;50.936;4.654;2023-02-27T12:50:21;6.20;99.90
26336;DHT22;14047;50.936;4.654;2023-02-27T12:53:23;6.30;99.90
26336;DHT22;14047;50.936;4.654;2023-02-27T12:56:03;6.10;99.90
26336;DHT22;14047;50.936;4.654;2023-02-27T12:59:10;6.30;99.90
26336;DHT22;14047;50.936;4.654;2023-02-27T13:02:02;6.20;99.90
26336;DHT22;14047;50.936;4.654;2023-02-27T13:04:44;6.30;99.90
26336;DHT22;14047;50.936;4.654;2023-02-27T13:07:58;6.10;99.90
26336;DHT22;14047;50.936;4.654;2023-02-27T13:10:35;6.20;99.90
26336;DHT22;14047;50.936;4.654;2023-02-27T13:13:25;6.20;99.90
26336;DHT22;14047;50.936;4.654;2023-02-27T13:15:59;6.10;99.90
26336;DHT22;14047;50.936;4.654;2023-02-27T13:18:36;6.20;99.90
26336;DHT22;14047;50.936;4.654;2023-02-27T13:21:27;6.20;99.90
26336;DHT22;14047;50.936;4.654;2023-02-27T13:27:06;6.20;99.90
26336;DHT22;14047;50.936;4.654;2023-02-27T13:29:39;6.20;99.90
26336;DHT22;14047;50.936;4.654;2023-02-27T13:37:09;6.90;99.90
26336;DHT22;14047;50.936;4.654;2023-02-27T13:45:04;8.00;99.90
26336;DHT22;14047;50.936;4.654;2023-02-27T13:47:47;7.60;99.90
26336;DHT22;14047;50.936;4.654;2023-02-27T13:52:44;6.90;99.90
26336;DHT22;14047;50.936;4.654;2023-02-27T13:55:31;6.80;99.90
26336;DHT22;14047;50.936;4.654;2023-02-27T13:58:03;6.80;99.90
26336;DHT22;14047;50.936;4.654;2023-02-27T14:00:32;6.40;99.90
26336;DHT22;14047;50.936;4.654;2023-02-27T14:03:19;6.20;99.90
26336;DHT22;14047;50.936;4.654;2023-02-27T14:05:47;5.80;99.90
26336;DHT22;14047;50.936;4.654;2023-02-27T14:08:22;5.80;99.90
26336;DHT22;14047;50.936;4.654;2023-02-27T14:24:33;6.30;99.90
26336;DHT22;14047;50.936;4.654;2023-02-27T14:27:02;6.20;99.90
26336;DHT22;14047;50.936;4.654;2023-02-27T14:29:31;6.10;99.90
26336;DHT22;14047;50.936;4.654;2023-02-27T14:32:13;6.20;99.90
26336;DHT22;14047;50.936;4.654;2023-02-27T14:34:41;6.30;99.90
26336;DHT22;14047;50.936;4.654;2023-02-27T14:37:12;6.30;99.90
26336;DHT22;14047;50.936;4.654;2023-02-27T14:39:40;6.30;99.90
26336;DHT22;14047;50.936;4.654;2023-02-27T14:45:20;5.90;99.90
26336;DHT22;14047;50.936;4.654;2023-02-27T14:47:48;6.00;99.90
26336;DHT22;14047;50.936;4.654;2023-02-27T14:50:32;6.20;99.90
26336;DHT22;14047;50.936;4.654;2023-02-27T14:53:03;6.30;99.90
26336;DHT22;14047;50.936;4.654;2023-02-27T14:55:35;6.20;99.90
26336;DHT22;14047;50.936;4.654;2023-02-27T14:58:19;6.10;99.90
26336;DHT22;14047;50.936;4.654;2023-02-27T15:00:58;6.00;99.90
26336;DHT22;14047;50.936;4.654;2023-02-27T15:03:47;5.90;99.90
26336;DHT22;14047;50.936;4.654;2023-02-27T15:09:03;5.80;99.90
26336;DHT22;14047;50.936;4.654;2023-02-27T15:11:30;6.10;99.90
26336;DHT22;14047;50.936;4.654;2023-02-27T15:13:59;6.00;99.90
26336;DHT22;14047;50.936;4.654;2023-02-27T15:16:37;5.80;99.90
26336;DHT22;14047;50.936;4.654;2023-02-27T15:19:12;5.90;99.90
26336;DHT22;14047;50.936;4.654;2023-02-27T15:21:42;6.10;99.90
26336;DHT22;14047;50.936;4.654;2023-02-27T15:24:33;6.40;99.90
26336;DHT22;14047;50.936;4.654;2023-02-27T15:27:07;6.20;99.90
26336;DHT22;14047;50.936;4.654;2023-02-27T15:29:41;6.00;99.90
26336;DHT22;14047;50.936;4.654;2023-02-27T15:34:49;5.70;99.90
26336;DHT22;14047;50.936;4.654;2023-02-27T15:37:30;5.70;99.90
26336;DHT22;14047;50.936;4.654;2023-02-27T15:39:57;5.80;99.90
26336;DHT22;14047;50.936;4.654;2023-02-27T15:42:29;5.90;99.90
26336;DHT22;14047;50.936;4.654;2023-02-27T15:44:57;6.10;99.90
26336;DHT22;14047;50.936;4.654;2023-02-27T15:47:26;6.10;99.90
26336;DHT22;14047;50.936;4.654;2023-02-27T15:49:58;6.20;99.90
26336;DHT22;14047;50.936;4.654;2023-02-27T15:52:26;6.30;99.90
26336;DHT22;14047;50.936;4.654;2023-02-27T15:55:00;6.20;99.90
26336;DHT22;14047;50.936;4.654;2023-02-27T15:57:26;6.20;99.90
26336;DHT22;14047;50.936;4.654;2023-02-27T15:59:54;6.10;99.90
26336;DHT22;14047;50.936;4.654;2023-02-27T16:02:27;5.70;99.90
26336;DHT22;14047;50.936;4.654;2023-02-27T16:04:54;5.70;99.90
26336;DHT22;14047;50.936;4.654;2023-02-27T16:07:23;5.80;99.90
26336;DHT22;14047;50.936;4.654;2023-02-27T16:10:04;5.80;99.90
26336;DHT22;14047;50.936;4.654;2023-02-27T16:12:33;5.90;99.90
26336;DHT22;14047;50.936;4.654;2023-02-27T16:15:29;6.00;99.90
26336;DHT22;14047;50.936;4.654;2023-02-27T16:23:16;5.80;99.90
26336;DHT22;14047;50.936;4.654;2023-02-27T16:28:31;5.90;99.90
26336;DHT22;14047;50.936;4.654;2023-02-27T16:30:57;5.70;99.90
26336;DHT22;14047;50.936;4.654;2023-02-27T16:33:24;5.90;99.90
26336;DHT22;14047;50.936;4.654;2023-02-27T16:36:19;5.90;99.90
26336;DHT22;14047;50.936;4.654;2023-02-27T16:38:45;5.90;99.90
26336;DHT22;14047;50.936;4.654;2023-02-27T16:41:13;5.80;99.90
26336;DHT22;14047;50.936;4.654;2023-02-27T16:43:44;5.90;99.90
26336;DHT22;14047;50.936;4.654;2023-02-27T16:46:12;5.80;99.90
26336;DHT22;14047;50.936;4.654;2023-02-27T16:48:49;5.70;99.90
26336;DHT22;14047;50.936;4.654;2023-02-27T16:51:17;5.70;99.90
26336;DHT22;14047;50.936;4.654;2023-02-27T16:53:48;5.60;99.90
26336;DHT22;14047;50.936;4.654;2023-02-27T16:56:15;5.90;99.90
26336;DHT22;14047;50.936;4.654;2023-02-27T16:58:41;6.00;99.90
26336;DHT22;14047;50.936;4.654;2023-02-27T17:01:08;5.60;99.90
26336;DHT22;14047;50.936;4.654;2023-02-27T17:03:34;5.50;99.90
26336;DHT22;14047;50.936;4.654;2023-02-27T17:06:00;5.40;99.90
26336;DHT22;14047;50.936;4.654;2023-02-27T17:08:29;5.20;99.90
26336;DHT22;14047;50.936;4.654;2023-02-27T17:10:55;5.20;99.90
26336;DHT22;14047;50.936;4.654;2023-02-27T17:13:23;5.30;99.90
26336;DHT22;14047;50.936;4.654;2023-02-27T17:15:49;5.20;99.90
26336;DHT22;14047;50.936;4.654;2023-02-27T17:18:15;5.40;99.90
26336;DHT22;14047;50.936;4.654;2023-02-27T17:20:41;5.50;99.90
26336;DHT22;14047;50.936;4.654;2023-02-27T17:23:09;5.30;99.90
26336;DHT22;14047;50.936;4.654;2023-02-27T17:25:35;5.30;99.90
26336;DHT22;14047;50.936;4.654;2023-02-27T17:28:01;5.20;99.90
26336;DHT22;14047;50.936;4.654;2023-02-27T17:30:27;5.10;99.90
26336;DHT22;14047;50.936;4.654;2023-02-27T17:32:53;4.90;99.90
26336;DHT22;14047;50.936;4.654;2023-02-27T17:35:19;4.90;99.90
26336;DHT22;14047;50.936;4.654;2023-02-27T17:37:45;4.80;99.90
26336;DHT22;14047;50.936;4.654;2023-02-27T17:40:11;4.70;99.90
26336;DHT22;14047;50.936;4.654;2023-02-27T17:42:38;4.60;99.90
26336;DHT22;14047;50.936;4.654;2023-02-27T17:45:06;4.60;99.90
26336;DHT22;14047;50.936;4.654;2023-02-27T17:47:33;4.80;99.90
26336;DHT22;14047;50.936;4.654;2023-02-27T17:49:59;4.70;99.90
26336;DHT22;14047;50.936;4.654;2023-02-27T17:52:25;4.70;99.90
26336;DHT22;14047;50.936;4.654;2023-02-27T17:54:52;4.70;99.90
26336;DHT22;14047;50.936;4.654;2023-02-27T17:57:18;4.60;99.90
26336;DHT22;14047;50.936;4.654;2023-02-27T17:59:44;4.50;99.90
26336;DHT22;14047;50.936;4.654;2023-02-27T18:02:11;4.50;99.90
26336;DHT22;14047;50.936;4.654;2023-02-27T18:04:37;4.40;99.90
26336;DHT22;14047;50.936;4.654;2023-02-27T18:07:03;4.50;99.90
26336;DHT22;14047;50.936;4.654;2023-02-27T18:09:30;4.50;99.90
26336;DHT22;14047;50.936;4.654;2023-02-27T18:11:56;4.40;99.90
26336;DHT22;14047;50.936;4.654;2023-02-27T18:14:23;4.40;99.90
26336;DHT22;14047;50.936;4.654;2023-02-27T18:16:49;4.30;99.90
26336;DHT22;14047;50.936;4.654;2023-02-27T18:19:16;4.40;99.90
26336;DHT22;14047;50.936;4.654;2023-02-27T18:21:43;4.40;99.90
26336;DHT22;14047;50.936;4.654;2023-02-27T18:24:14;4.30;99.90
26336;DHT22;14047;50.936;4.654;2023-02-27T18:26:42;4.30;99.90
26336;DHT22;14047;50.936;4.654;2023-02-27T18:29:12;4.10;99.90
26336;DHT22;14047;50.936;4.654;2023-02-27T18:31:41;4.10;99.90
26336;DHT22;14047;50.936;4.654;2023-02-27T18:34:08;4.20;99.90
26336;DHT22;14047;50.936;4.654;2023-02-27T18:36:34;4.20;99.90
26336;DHT22;14047;50.936;4.654;2023-02-27T18:39:02;4.10;99.90
26336;DHT22;14047;50.936;4.654;2023-02-27T18:41:29;4.00;99.90
26336;DHT22;14047;50.936;4.654;2023-02-27T18:43:57;4.00;99.90
26336;DHT22;14047;50.936;4.654;2023-02-27T18:46:24;3.90;99.90
26336;DHT22;14047;50.936;4.654;2023-02-27T18:48:50;3.80;99.90
26336;DHT22;14047;50.936;4.654;2023-02-27T18:51:17;3.80;99.90